createdAt,value
2022-08-01T00:00:50.155Z,602
2022-08-01T00:02:50.390Z,626
2022-08-01T00:03:50.130Z,502
2022-08-01T00:04:50.127Z,815
2022-08-01T00:05:50.134Z,549
2022-08-01T00:07:50.297Z,757
2022-08-01T00:08:50.129Z,834
2022-08-01T00:09:50.128Z,834
2022-08-01T00:10:50.136Z,810
2022-08-01T00:12:50.324Z,865
2022-08-01T00:13:50.158Z,915
2022-08-01T00:14:50.121Z,830
2022-08-01T00:15:53.899Z,774
2022-08-01T00:17:50.317Z,612
2022-08-01T00:18:50.131Z,840
2022-08-01T00:19:50.148Z,848
2022-08-01T00:20:50.131Z,653
2022-08-01T00:22:50.312Z,552
2022-08-01T00:23:50.128Z,569
2022-08-01T00:24:50.157Z,530
2022-08-01T00:25:50.193Z,851
2022-08-01T00:27:50.342Z,851
2022-08-01T00:28:50.198Z,675
2022-08-01T00:30:10.484Z,744
2022-08-01T00:30:50.194Z,768
2022-08-01T00:32:50.341Z,768
2022-08-01T00:33:50.194Z,844
2022-08-01T00:34:50.201Z,880
2022-08-01T00:35:50.195Z,830
2022-08-01T00:37:50.331Z,602
2022-08-01T00:38:50.171Z,508
2022-08-01T00:39:50.200Z,517
2022-08-01T00:40:50.238Z,710
2022-08-01T00:42:50.319Z,757
2022-08-01T00:43:50.189Z,735
2022-08-01T00:44:50.165Z,714
2022-08-01T00:45:50.153Z,719
2022-08-01T00:47:54.890Z,714
2022-08-01T00:48:50.187Z,759
2022-08-01T00:49:50.142Z,706
2022-08-01T00:50:50.145Z,765
2022-08-01T00:52:51.433Z,548
2022-08-01T00:53:51.526Z,493
2022-08-01T00:54:50.163Z,476
2022-08-01T00:55:50.163Z,514
2022-08-01T00:58:01.958Z,740
2022-08-01T00:58:50.342Z,566
2022-08-01T00:59:50.142Z,556
2022-08-01T01:00:53.409Z,817
2022-08-01T01:02:50.324Z,821
2022-08-01T01:03:58.906Z,714
2022-08-01T01:04:50.150Z,714
2022-08-01T01:05:50.155Z,714
2022-08-01T01:07:50.351Z,733
2022-08-01T01:08:50.159Z,574
2022-08-01T01:09:50.153Z,586
2022-08-01T01:10:50.165Z,447
2022-08-01T01:12:50.458Z,518
2022-08-01T01:13:50.870Z,552
2022-08-01T01:14:50.157Z,594
2022-08-01T01:15:50.190Z,581
2022-08-01T01:17:51.821Z,1001
2022-08-01T01:18:50.219Z,954
2022-08-01T01:19:50.219Z,868
2022-08-01T01:20:50.230Z,808
2022-08-01T01:22:50.405Z,848
2022-08-01T01:23:50.226Z,665
2022-08-01T01:24:50.225Z,572
2022-08-01T01:25:50.224Z,902
2022-08-01T01:27:50.381Z,631
2022-08-01T01:28:50.229Z,643
2022-08-01T01:29:59.140Z,643
2022-08-01T01:30:50.247Z,686
2022-08-01T01:32:50.334Z,795
2022-08-01T01:33:50.234Z,830
2022-08-01T01:34:50.189Z,836
2022-08-01T01:35:50.235Z,887
2022-08-01T01:37:50.366Z,821
2022-08-01T01:38:50.229Z,623
2022-08-01T01:39:54.052Z,872
2022-08-01T01:40:50.195Z,821
2022-08-01T01:42:50.355Z,618
2022-08-01T01:43:50.194Z,653
2022-08-01T01:44:50.169Z,665
2022-08-01T01:45:50.168Z,961
2022-08-01T01:47:50.374Z,920
2022-08-01T01:48:50.234Z,793
2022-08-01T01:49:50.172Z,802
2022-08-01T01:50:50.177Z,882
2022-08-01T01:52:50.356Z,774
2022-08-01T01:53:50.169Z,851
2022-08-01T01:54:50.180Z,851
2022-08-01T01:55:50.315Z,626
2022-08-01T01:57:50.350Z,665
2022-08-01T01:58:50.185Z,623
2022-08-01T01:59:50.191Z,872
2022-08-01T02:00:50.369Z,868
2022-08-01T02:02:50.400Z,891
2022-08-01T02:03:50.189Z,853
2022-08-01T02:04:50.200Z,857
2022-08-01T02:05:50.176Z,675
2022-08-01T02:07:50.386Z,763
2022-08-01T02:08:50.183Z,675
2022-08-01T02:09:50.249Z,637
2022-08-01T02:10:50.245Z,602
2022-08-01T02:12:50.389Z,815
2022-08-01T02:13:50.249Z,757
2022-08-01T02:14:50.251Z,810
2022-08-01T02:15:59.623Z,746
2022-08-01T02:17:50.388Z,927
2022-08-01T02:18:50.277Z,880
2022-08-01T02:19:50.254Z,552
2022-08-01T02:20:50.256Z,793
2022-08-01T02:22:50.361Z,626
2022-08-01T02:23:50.223Z,714
2022-08-01T02:24:50.224Z,735
2022-08-01T02:26:10.109Z,990
2022-08-01T02:27:50.383Z,770
2022-08-01T02:28:50.211Z,836
2022-08-01T02:29:50.219Z,851
2022-08-01T02:30:50.213Z,785
2022-08-01T02:32:50.372Z,556
2022-08-01T02:33:50.194Z,580
2022-08-01T02:34:50.201Z,597
2022-08-01T02:36:28.679Z,505
2022-08-01T02:37:50.389Z,785
2022-08-01T02:38:50.211Z,688
2022-08-01T02:39:50.220Z,774
2022-08-01T02:40:50.194Z,793
2022-08-01T02:42:50.375Z,757
2022-08-01T02:43:50.749Z,785
2022-08-01T02:44:50.208Z,572
2022-08-01T02:45:50.216Z,600
2022-08-01T02:47:50.397Z,806
2022-08-01T02:48:50.301Z,605
2022-08-01T02:49:53.166Z,567
2022-08-01T02:50:50.201Z,774
2022-08-01T02:52:50.404Z,787
2022-08-01T02:53:50.203Z,787
2022-08-01T02:54:50.270Z,795
2022-08-01T02:55:50.278Z,870
2022-08-01T02:57:51.976Z,602
2022-08-01T02:58:50.271Z,570
2022-08-01T02:59:50.273Z,749
2022-08-01T03:00:50.269Z,795
2022-08-01T03:02:50.379Z,588
2022-08-01T03:03:50.232Z,746
2022-08-01T03:04:53.813Z,795
2022-08-01T03:05:50.283Z,802
2022-08-01T03:07:50.388Z,995
2022-08-01T03:08:50.282Z,882
2022-08-01T03:09:50.306Z,578
2022-08-01T03:10:50.303Z,623
2022-08-01T03:12:50.416Z,832
2022-08-01T03:13:50.240Z,808
2022-08-01T03:14:50.377Z,795
2022-08-01T03:15:50.237Z,848
2022-08-01T03:17:50.438Z,848
2022-08-01T03:18:50.227Z,749
2022-08-01T03:19:50.226Z,772
2022-08-01T03:20:50.461Z,757
2022-08-01T03:22:50.410Z,795
2022-08-01T03:23:53.484Z,584
2022-08-01T03:24:51.043Z,600
2022-08-01T03:25:50.236Z,672
2022-08-01T03:27:50.401Z,848
2022-08-01T03:28:50.221Z,643
2022-08-01T03:29:50.238Z,540
2022-08-01T03:30:50.225Z,666
2022-08-01T03:32:50.404Z,857
2022-08-01T03:33:50.224Z,830
2022-08-01T03:34:50.225Z,834
2022-08-01T03:35:50.230Z,889
2022-08-01T03:38:14.612Z,641
2022-08-01T03:38:50.229Z,546
2022-08-01T03:39:50.235Z,584
2022-08-01T03:40:50.258Z,666
2022-08-01T03:42:50.431Z,880
2022-08-01T03:43:50.230Z,615
2022-08-01T03:44:50.234Z,819
2022-08-01T03:45:50.258Z,857
2022-08-01T03:47:50.437Z,902
2022-08-01T03:48:50.304Z,909
2022-08-01T03:49:50.231Z,887
2022-08-01T03:50:50.238Z,887
2022-08-01T03:52:50.442Z,614
2022-08-01T03:53:50.303Z,578
2022-08-01T03:54:50.305Z,517
2022-08-01T03:55:50.296Z,857
2022-08-01T03:57:50.462Z,637
2022-08-01T03:58:50.421Z,599
2022-08-01T03:59:50.292Z,795
2022-08-01T04:00:50.303Z,776
2022-08-01T04:02:50.452Z,737
2022-08-01T04:03:50.300Z,704
2022-08-01T04:04:50.310Z,744
2022-08-01T04:05:50.331Z,808
2022-08-01T04:07:50.429Z,586
2022-08-01T04:08:50.289Z,592
2022-08-01T04:09:50.278Z,592
2022-08-01T04:10:50.539Z,618
2022-08-01T04:12:50.432Z,574
2022-08-01T04:13:50.341Z,614
2022-08-01T04:14:50.267Z,857
2022-08-01T04:15:50.279Z,836
2022-08-01T04:17:50.465Z,785
2022-08-01T04:18:50.268Z,763
2022-08-01T04:19:50.250Z,749
2022-08-01T04:20:50.261Z,780
2022-08-01T04:22:50.428Z,763
2022-08-01T04:23:50.891Z,793
2022-08-01T04:24:53.400Z,712
2022-08-01T04:25:50.309Z,763
2022-08-01T04:27:51.941Z,553
2022-08-01T04:28:50.249Z,600
2022-08-01T04:29:50.252Z,620
2022-08-01T04:30:50.251Z,584
2022-08-01T04:32:50.427Z,768
2022-08-01T04:33:50.249Z,810
2022-08-01T04:34:50.276Z,819
2022-08-01T04:36:03.115Z,834
2022-08-01T04:37:50.428Z,787
2022-08-01T04:38:50.260Z,804
2022-08-01T04:39:51.260Z,804
2022-08-01T04:40:50.256Z,774
2022-08-01T04:42:50.426Z,844
2022-08-01T04:43:50.255Z,574
2022-08-01T04:44:50.271Z,553
2022-08-01T04:45:50.284Z,553
2022-08-01T04:47:50.459Z,650
2022-08-01T04:48:50.279Z,802
2022-08-01T04:49:50.308Z,765
2022-08-01T04:50:50.278Z,765
2022-08-01T04:52:50.469Z,795
2022-08-01T04:53:50.261Z,749
2022-08-01T04:54:50.332Z,819
2022-08-01T04:55:50.259Z,780
2022-08-01T04:57:50.494Z,733
2022-08-01T04:58:50.334Z,679
2022-08-01T04:59:50.349Z,627
2022-08-01T05:00:50.405Z,627
2022-08-01T05:02:50.462Z,900
2022-08-01T05:03:50.334Z,752
2022-08-01T05:04:50.291Z,607
2022-08-01T05:05:50.331Z,787
2022-08-01T05:07:50.472Z,770
2022-08-01T05:08:50.331Z,813
2022-08-01T05:09:50.338Z,757
2022-08-01T05:10:50.363Z,808
2022-08-01T05:12:50.469Z,545
2022-08-01T05:13:50.335Z,602
2022-08-01T05:14:50.332Z,487
2022-08-01T05:15:50.293Z,497
2022-08-01T05:17:50.475Z,765
2022-08-01T05:18:50.339Z,580
2022-08-01T05:19:50.344Z,891
2022-08-01T05:20:50.341Z,848
2022-08-01T05:22:50.489Z,882
2022-08-01T05:23:50.338Z,596
2022-08-01T05:24:50.348Z,572
2022-08-01T05:25:54.929Z,600
2022-08-01T05:27:51.044Z,815
2022-08-01T05:28:50.342Z,825
2022-08-01T05:29:50.339Z,844
2022-08-01T05:30:50.378Z,844
2022-08-01T05:32:50.475Z,656
2022-08-01T05:33:50.346Z,614
2022-08-01T05:34:50.351Z,523
2022-08-01T05:35:50.347Z,645
2022-08-01T05:37:50.542Z,909
2022-08-01T05:38:50.348Z,925
2022-08-01T05:39:50.310Z,815
2022-08-01T05:40:50.344Z,945
2022-08-01T05:42:50.466Z,735
2022-08-01T05:43:50.374Z,857
2022-08-01T05:44:50.355Z,540
2022-08-01T05:45:50.315Z,817
2022-08-01T05:47:50.480Z,603
2022-08-01T05:48:50.348Z,772
2022-08-01T05:49:50.291Z,730
2022-08-01T05:50:50.389Z,706
2022-08-01T05:52:50.486Z,566
2022-08-01T05:53:50.357Z,491
2022-08-01T05:54:50.388Z,560
2022-08-01T05:55:50.316Z,749
2022-08-01T05:57:50.486Z,600
2022-08-01T05:58:50.370Z,656
2022-08-01T05:59:50.370Z,612
2022-08-01T06:00:50.295Z,540
2022-08-01T06:02:50.710Z,746
2022-08-01T06:03:50.295Z,776
2022-08-01T06:04:50.359Z,749
2022-08-01T06:05:50.298Z,827
2022-08-01T06:07:50.494Z,623
2022-08-01T06:08:50.312Z,578
2022-08-01T06:09:50.295Z,597
2022-08-01T06:10:50.304Z,808
2022-08-01T06:12:50.497Z,706
2022-08-01T06:13:50.297Z,459
2022-08-01T06:14:50.308Z,577
2022-08-01T06:15:50.303Z,580
2022-08-01T06:17:50.484Z,524
2022-08-01T06:18:52.823Z,524
2022-08-01T06:19:50.312Z,529
2022-08-01T06:20:50.304Z,757
2022-08-01T06:22:51.805Z,649
2022-08-01T06:23:50.306Z,530
2022-08-01T06:24:50.327Z,537
2022-08-01T06:25:50.364Z,552
2022-08-01T06:27:50.545Z,602
2022-08-01T06:28:50.398Z,581
2022-08-01T06:29:53.839Z,567
2022-08-01T06:30:50.343Z,552
2022-08-01T06:32:50.500Z,810
2022-08-01T06:33:50.357Z,706
2022-08-01T06:34:50.465Z,742
2022-08-01T06:35:50.356Z,768
2022-08-01T06:37:50.489Z,473
2022-08-01T06:38:50.338Z,659
2022-08-01T06:39:50.611Z,714
2022-08-01T06:40:50.342Z,728
2022-08-01T06:42:50.504Z,774
2022-08-01T06:43:50.342Z,690
2022-08-01T06:44:50.362Z,706
2022-08-01T06:45:50.333Z,763
2022-08-01T06:47:50.693Z,733
2022-08-01T06:48:50.433Z,657
2022-08-01T06:49:50.342Z,702
2022-08-01T06:50:50.362Z,657
2022-08-01T06:52:50.521Z,643
2022-08-01T06:53:50.346Z,671
2022-08-01T06:54:50.356Z,714
2022-08-01T06:55:50.320Z,690
2022-08-01T06:57:50.505Z,679
2022-08-01T06:58:50.322Z,433
2022-08-01T06:59:51.743Z,700
2022-08-01T07:00:52.574Z,460
2022-08-01T07:02:50.529Z,503
2022-08-01T07:03:52.569Z,463
2022-08-01T07:04:50.330Z,660
2022-08-01T07:05:50.325Z,688
2022-08-01T07:07:50.546Z,733
2022-08-01T07:08:50.386Z,603
2022-08-01T07:09:50.323Z,650
2022-08-01T07:10:50.388Z,795
2022-08-01T07:12:50.536Z,742
2022-08-01T07:13:50.397Z,699
2022-08-01T07:14:50.327Z,761
2022-08-01T07:15:50.397Z,761
2022-08-01T07:17:50.561Z,719
2022-08-01T07:18:50.327Z,706
2022-08-01T07:19:50.334Z,802
2022-08-01T07:20:52.817Z,787
2022-08-01T07:22:50.532Z,759
2022-08-01T07:23:50.339Z,752
2022-08-01T07:24:50.395Z,561
2022-08-01T07:25:52.583Z,641
2022-08-01T07:27:50.538Z,783
2022-08-01T07:28:50.361Z,473
2022-08-01T07:29:50.341Z,603
2022-08-01T07:30:50.337Z,626
2022-08-01T07:32:50.533Z,533
2022-08-01T07:33:50.333Z,791
2022-08-01T07:34:50.345Z,565
2022-08-01T07:35:50.354Z,549
2022-08-01T07:37:50.562Z,708
2022-08-01T07:38:50.408Z,445
2022-08-01T07:39:50.361Z,578
2022-08-01T07:40:50.368Z,778
2022-08-01T07:42:50.519Z,853
2022-08-01T07:43:56.428Z,572
2022-08-01T07:44:50.341Z,527
2022-08-01T07:45:50.357Z,577
2022-08-01T07:47:50.571Z,572
2022-08-01T07:48:50.410Z,783
2022-08-01T07:49:50.345Z,549
2022-08-01T07:50:50.351Z,519
2022-08-01T07:52:50.528Z,581
2022-08-01T07:53:50.439Z,549
2022-08-01T07:54:52.203Z,626
2022-08-01T07:55:50.380Z,461
2022-08-01T07:57:50.542Z,476
2022-08-01T07:58:50.350Z,656
2022-08-01T07:59:50.381Z,694
2022-08-01T08:00:50.447Z,491
2022-08-01T08:02:50.557Z,668
2022-08-01T08:03:50.422Z,515
2022-08-01T08:04:50.350Z,730
2022-08-01T08:05:51.489Z,614
2022-08-01T08:07:50.567Z,400
2022-08-01T08:08:50.447Z,485
2022-08-01T08:09:50.949Z,600
2022-08-01T08:10:50.430Z,653
2022-08-01T08:12:50.554Z,492
2022-08-01T08:13:50.362Z,577
2022-08-01T08:14:50.420Z,597
2022-08-01T08:15:50.424Z,526
2022-08-01T08:17:55.089Z,602
2022-08-01T08:18:50.357Z,656
2022-08-01T08:19:50.384Z,656
2022-08-01T08:20:50.430Z,674
2022-08-01T08:22:50.560Z,666
2022-08-01T08:23:50.359Z,645
2022-08-01T08:24:50.378Z,539
2022-08-01T08:25:50.373Z,660
2022-08-01T08:27:50.559Z,690
2022-08-01T08:28:50.458Z,523
2022-08-01T08:29:50.388Z,612
2022-08-01T08:30:50.379Z,612
2022-08-01T08:32:50.580Z,592
2022-08-01T08:33:50.402Z,592
2022-08-01T08:34:50.412Z,433
2022-08-01T08:35:54.047Z,439
2022-08-01T08:37:50.614Z,605
2022-08-01T08:38:50.433Z,586
2022-08-01T08:39:50.369Z,400
2022-08-01T08:40:50.398Z,483
2022-08-01T08:42:50.572Z,699
2022-08-01T08:43:50.408Z,627
2022-08-01T08:44:50.380Z,624
2022-08-01T08:45:59.109Z,491
2022-08-01T08:47:50.570Z,623
2022-08-01T08:48:50.392Z,400
2022-08-01T08:49:50.394Z,459
2022-08-01T08:50:50.376Z,629
2022-08-01T08:52:50.585Z,424
2022-08-01T08:53:50.455Z,649
2022-08-01T08:54:50.467Z,517
2022-08-01T08:55:55.220Z,400
2022-08-01T08:57:50.583Z,683
2022-08-01T08:58:50.403Z,418
2022-08-01T08:59:50.418Z,575
2022-08-01T09:00:50.440Z,566
2022-08-01T09:02:50.656Z,641
2022-08-01T09:03:50.386Z,464
2022-08-01T09:04:50.395Z,508
2022-08-01T09:05:50.387Z,708
2022-08-01T09:07:50.568Z,732
2022-08-01T09:08:50.422Z,634
2022-08-01T09:09:51.353Z,629
2022-08-01T09:10:50.419Z,418
2022-08-01T09:12:50.592Z,594
2022-08-01T09:13:50.386Z,470
2022-08-01T09:14:50.482Z,643
2022-08-01T09:15:50.416Z,446
2022-08-01T09:17:50.569Z,586
2022-08-01T09:18:52.874Z,591
2022-08-01T09:19:50.424Z,418
2022-08-01T09:20:50.400Z,543
2022-08-01T09:22:50.606Z,569
2022-08-01T09:23:53.223Z,618
2022-08-01T09:24:50.427Z,454
2022-08-01T09:25:50.417Z,570
2022-08-01T09:27:50.573Z,447
2022-08-01T09:28:50.459Z,657
2022-08-01T09:29:59.725Z,607
2022-08-01T09:30:50.426Z,626
2022-08-01T09:32:50.578Z,618
2022-08-01T09:33:50.653Z,646
2022-08-01T09:34:50.409Z,465
2022-08-01T09:35:50.413Z,638
2022-08-01T09:37:50.593Z,596
2022-08-01T09:38:50.832Z,408
2022-08-01T09:39:50.465Z,570
2022-08-01T09:40:50.435Z,546
2022-08-01T09:42:50.603Z,567
2022-08-01T09:43:50.472Z,548
2022-08-01T09:44:54.779Z,488
2022-08-01T09:45:53.173Z,671
2022-08-01T09:47:50.586Z,682
2022-08-01T09:48:50.461Z,702
2022-08-01T09:49:52.081Z,688
2022-08-01T09:50:50.498Z,515
2022-08-01T09:52:50.615Z,730
2022-08-01T09:53:51.581Z,599
2022-08-01T09:54:50.437Z,447
2022-08-01T09:55:50.444Z,617
2022-08-01T09:57:50.607Z,486
2022-08-01T09:58:53.843Z,675
2022-08-01T09:59:58.107Z,690
2022-08-01T10:00:50.489Z,497
2022-08-01T10:02:50.612Z,740
2022-08-01T10:03:50.448Z,497
2022-08-01T10:04:50.656Z,409
2022-08-01T10:05:50.483Z,646
2022-08-01T10:07:50.592Z,679
2022-08-01T10:08:50.723Z,744
2022-08-01T10:09:50.421Z,565
2022-08-01T10:10:50.509Z,574
2022-08-01T10:12:50.652Z,607
2022-08-01T10:13:50.497Z,742
2022-08-01T10:14:50.625Z,780
2022-08-01T10:15:50.427Z,551
2022-08-01T10:17:51.501Z,618
2022-08-01T10:18:50.423Z,885
2022-08-01T10:19:50.430Z,915
2022-08-01T10:20:50.489Z,834
2022-08-01T10:22:50.650Z,813
2022-08-01T10:23:50.493Z,481
2022-08-01T10:24:50.645Z,710
2022-08-01T10:25:50.433Z,686
2022-08-01T10:27:50.606Z,411
2022-08-01T10:28:50.495Z,765
2022-08-01T10:30:00.066Z,778
2022-08-01T10:30:50.440Z,810
2022-08-01T10:32:51.164Z,853
2022-08-01T10:33:53.294Z,774
2022-08-01T10:34:50.431Z,798
2022-08-01T10:35:50.449Z,752
2022-08-01T10:37:51.765Z,798
2022-08-01T10:38:50.453Z,765
2022-08-01T10:39:50.451Z,530
2022-08-01T10:40:50.440Z,553
2022-08-01T10:42:50.612Z,882
2022-08-01T10:43:50.440Z,813
2022-08-01T10:44:50.439Z,783
2022-08-01T10:45:50.457Z,776
2022-08-01T10:47:51.298Z,629
2022-08-01T10:48:52.076Z,821
2022-08-01T10:49:50.531Z,909
2022-08-01T10:50:50.523Z,817
2022-08-01T10:52:50.660Z,640
2022-08-01T10:53:50.510Z,920
2022-08-01T10:54:52.545Z,649
2022-08-01T10:55:50.443Z,1212
2022-08-01T10:57:52.806Z,1238
2022-08-01T10:58:50.448Z,1393
2022-08-01T10:59:59.502Z,1380
2022-08-01T11:00:50.517Z,1482
2022-08-01T11:02:50.658Z,1060
2022-08-01T11:03:56.980Z,1380
2022-08-01T11:04:50.458Z,1134
2022-08-01T11:05:50.478Z,983
2022-08-01T11:07:50.636Z,1050
2022-08-01T11:08:50.517Z,1201
2022-08-01T11:09:51.860Z,1530
2022-08-01T11:10:50.471Z,1594
2022-08-01T11:12:50.662Z,1759
2022-08-01T11:13:50.459Z,1845
2022-08-01T11:14:55.422Z,1242
2022-08-01T11:15:50.941Z,1274
2022-08-01T11:17:54.664Z,1252
2022-08-01T11:18:50.459Z,1544
2022-08-01T11:19:50.465Z,1584
2022-08-01T11:20:50.467Z,1574
2022-08-01T11:22:50.652Z,1184
2022-08-01T11:23:50.508Z,804
2022-08-01T11:24:50.848Z,1144
2022-08-01T11:25:58.294Z,692
2022-08-01T11:27:50.660Z,825
2022-08-01T11:29:11.150Z,865
2022-08-01T11:29:50.526Z,524
2022-08-01T11:30:50.536Z,717
2022-08-01T11:33:07.061Z,611
2022-08-01T11:33:50.475Z,553
2022-08-01T11:34:50.490Z,534
2022-08-01T11:35:50.542Z,569
2022-08-01T11:37:50.675Z,624
2022-08-01T11:38:50.538Z,683
2022-08-01T11:39:50.535Z,508
2022-08-01T11:40:50.543Z,637
2022-08-01T11:42:50.660Z,580
2022-08-01T11:43:50.475Z,586
2022-08-01T11:44:50.483Z,765
2022-08-01T11:45:50.502Z,432
2022-08-01T11:47:50.690Z,578
2022-08-01T11:48:50.629Z,754
2022-08-01T11:49:50.505Z,763
2022-08-01T11:50:50.503Z,560
2022-08-01T11:52:50.686Z,827
2022-08-01T11:53:50.550Z,478
2022-08-01T11:54:50.485Z,675
2022-08-01T11:55:51.333Z,495
2022-08-01T11:57:50.681Z,740
2022-08-01T11:58:50.481Z,572
2022-08-01T11:59:55.439Z,533
2022-08-01T12:00:50.558Z,656
2022-08-01T12:02:50.758Z,838
2022-08-01T12:03:50.494Z,783
2022-08-01T12:04:50.503Z,793
2022-08-01T12:05:50.498Z,584
2022-08-01T12:07:50.669Z,865
2022-08-01T12:08:50.502Z,624
2022-08-01T12:09:50.485Z,853
2022-08-01T12:10:50.514Z,611
2022-08-01T12:12:50.666Z,853
2022-08-01T12:13:50.555Z,627
2022-08-01T12:14:50.566Z,848
2022-08-01T12:15:53.504Z,599
2022-08-01T12:17:57.843Z,987
2022-08-01T12:18:50.510Z,975
2022-08-01T12:19:50.530Z,1065
2022-08-01T12:20:56.449Z,768
2022-08-01T12:22:50.709Z,1178
2022-08-01T12:23:50.561Z,897
2022-08-01T12:24:50.560Z,961
2022-08-01T12:25:50.570Z,972
2022-08-01T12:27:54.428Z,1035
2022-08-01T12:28:50.531Z,656
2022-08-01T12:29:50.501Z,715
2022-08-01T12:30:50.539Z,1144
2022-08-01T12:32:50.696Z,815
2022-08-01T12:33:50.502Z,1242
2022-08-01T12:34:50.533Z,1285
2022-08-01T12:35:50.547Z,1360
2022-08-01T12:37:50.717Z,1215
2022-08-01T12:38:50.576Z,1385
2022-08-01T12:39:50.517Z,951
2022-08-01T12:40:51.678Z,1385
2022-08-01T12:42:50.696Z,981
2022-08-01T12:43:50.532Z,891
2022-08-01T12:44:50.528Z,1299
2022-08-01T12:45:54.661Z,981
2022-08-01T12:47:50.719Z,1462
2022-08-01T12:48:50.604Z,1584
2022-08-01T12:49:50.516Z,1044
2022-08-01T12:50:50.521Z,1597
2022-08-01T12:52:50.692Z,1356
2022-08-01T12:53:50.578Z,1562
2022-08-01T12:54:50.617Z,1462
2022-08-01T12:55:57.960Z,1462
2022-08-01T12:57:50.725Z,951
2022-08-01T12:58:50.575Z,1174
2022-08-01T12:59:50.542Z,1107
2022-08-01T13:00:50.579Z,1147
2022-08-01T13:02:50.726Z,1231
2022-08-01T13:03:50.593Z,1188
2022-08-01T13:04:50.527Z,853
2022-08-01T13:05:50.534Z,897
2022-08-01T13:07:50.737Z,1376
2022-08-01T13:08:50.527Z,1056
2022-08-01T13:09:50.532Z,1140
2022-08-01T13:10:50.555Z,1224
2022-08-01T13:12:50.702Z,1224
2022-08-01T13:13:50.577Z,1548
2022-08-01T13:14:50.597Z,1131
2022-08-01T13:15:50.562Z,1313
2022-08-01T13:17:50.740Z,1776
2022-08-01T13:18:50.620Z,2280
2022-08-01T13:19:50.587Z,2359
2022-08-01T13:20:52.264Z,1616
2022-08-01T13:22:50.736Z,2152
2022-08-01T13:24:02.380Z,1860
2022-08-01T13:24:50.544Z,1462
2022-08-01T13:25:50.541Z,1334
2022-08-01T13:27:53.041Z,1905
2022-08-01T13:28:50.574Z,1360
2022-08-01T13:29:50.540Z,1147
2022-08-01T13:30:50.560Z,1544
2022-08-01T13:32:50.737Z,1349
2022-08-01T13:33:54.147Z,1274
2022-08-01T13:34:50.566Z,1231
2022-08-01T13:35:50.538Z,857
2022-08-01T13:37:50.723Z,1274
2022-08-01T13:38:50.609Z,1153
2022-08-01T13:39:50.617Z,746
2022-08-01T13:40:50.613Z,1004
2022-08-01T13:42:50.744Z,679
2022-08-01T13:43:57.925Z,1053
2022-08-01T13:44:50.549Z,686
2022-08-01T13:45:50.553Z,726
2022-08-01T13:48:04.285Z,1083
2022-08-01T13:48:50.615Z,995
2022-08-01T13:49:50.692Z,972
2022-08-01T13:51:01.986Z,933
2022-08-01T13:52:50.768Z,660
2022-08-01T13:53:50.564Z,1134
2022-08-01T13:54:50.555Z,1212
2022-08-01T13:55:50.576Z,874
2022-08-01T13:57:50.756Z,1191
2022-08-01T13:58:50.583Z,1163
2022-08-01T13:59:50.555Z,806
2022-08-01T14:00:50.685Z,776
2022-08-01T14:02:50.761Z,815
2022-08-01T14:03:50.626Z,1107
2022-08-01T14:04:50.632Z,951
2022-08-01T14:05:50.555Z,1062
2022-08-01T14:07:50.733Z,836
2022-08-01T14:08:50.560Z,514
2022-08-01T14:09:57.925Z,744
2022-08-01T14:10:50.612Z,710
2022-08-01T14:12:50.965Z,699
2022-08-01T14:13:50.632Z,623
2022-08-01T14:14:50.627Z,463
2022-08-01T14:15:50.567Z,665
2022-08-01T14:17:50.736Z,649
2022-08-01T14:18:50.575Z,624
2022-08-01T14:19:50.574Z,666
2022-08-01T14:20:50.672Z,637
2022-08-01T14:22:50.769Z,428
2022-08-01T14:23:50.669Z,463
2022-08-01T14:24:50.632Z,433
2022-08-01T14:25:59.356Z,552
2022-08-01T14:27:50.752Z,855
2022-08-01T14:28:50.572Z,819
2022-08-01T14:29:54.561Z,802
2022-08-01T14:30:50.600Z,810
2022-08-01T14:32:50.756Z,561
2022-08-01T14:33:50.642Z,907
2022-08-01T14:34:50.640Z,592
2022-08-01T14:36:02.047Z,872
2022-08-01T14:37:50.773Z,923
2022-08-01T14:38:50.599Z,761
2022-08-01T14:39:53.641Z,810
2022-08-01T14:40:50.582Z,915
2022-08-01T14:42:50.780Z,798
2022-08-01T14:43:50.607Z,874
2022-08-01T14:44:50.589Z,945
2022-08-01T14:45:50.592Z,981
2022-08-01T14:47:50.788Z,992
2022-08-01T14:48:50.701Z,1060
2022-08-01T14:49:50.688Z,643
2022-08-01T14:50:50.887Z,813
2022-08-01T14:52:50.760Z,1270
2022-08-01T14:53:50.757Z,1137
2022-08-01T14:54:50.616Z,732
2022-08-01T14:55:50.587Z,1224
2022-08-01T14:57:50.790Z,1252
2022-08-01T14:58:50.617Z,1349
2022-08-01T14:59:50.621Z,1513
2022-08-01T15:00:52.397Z,1534
2022-08-01T15:02:50.797Z,1654
2022-08-01T15:03:50.599Z,930
2022-08-01T15:04:50.601Z,930
2022-08-01T15:05:50.619Z,715
2022-08-01T15:07:52.136Z,1404
2022-08-01T15:08:50.624Z,1759
2022-08-01T15:09:50.601Z,1884
2022-08-01T15:10:50.596Z,1884
2022-08-01T15:12:50.934Z,2072
2022-08-01T15:13:50.665Z,1937
2022-08-01T15:14:50.628Z,1950
2022-08-01T15:15:50.597Z,1270
2022-08-01T15:17:50.776Z,1798
2022-08-01T15:18:50.672Z,2311
2022-08-01T15:19:50.611Z,1538
2022-08-01T15:20:50.611Z,1478
2022-08-01T15:22:50.805Z,1950
2022-08-01T15:23:50.629Z,1316
2022-08-01T15:24:54.116Z,1195
2022-08-01T15:25:50.668Z,1692
2022-08-01T15:27:50.824Z,1507
2022-08-01T15:28:50.610Z,1525
2022-08-01T15:29:50.614Z,1491
2022-08-01T15:30:50.610Z,1552
2022-08-01T15:32:51.110Z,1420
2022-08-01T15:33:50.688Z,1159
2022-08-01T15:34:50.633Z,1367
2022-08-01T15:35:52.757Z,778
2022-08-01T15:37:51.053Z,1090
2022-08-01T15:38:50.679Z,735
2022-08-01T15:39:50.678Z,702
2022-08-01T15:40:50.681Z,1032
2022-08-01T15:42:50.825Z,1077
2022-08-01T15:43:55.879Z,951
2022-08-01T15:44:50.626Z,981
2022-08-01T15:45:50.651Z,1001
2022-08-01T15:47:50.796Z,1017
2022-08-01T15:48:50.716Z,1056
2022-08-01T15:49:52.301Z,1081
2022-08-01T15:50:50.650Z,1074
2022-08-01T15:52:50.842Z,1004
2022-08-01T15:53:50.703Z,668
2022-08-01T15:54:50.664Z,918
2022-08-01T15:55:52.554Z,945
2022-08-01T15:57:50.828Z,643
2022-08-01T15:58:50.630Z,857
2022-08-01T15:59:50.628Z,838
2022-08-01T16:00:50.631Z,819
2022-08-01T16:02:50.829Z,1259
2022-08-01T16:03:50.674Z,832
2022-08-01T16:04:50.662Z,1262
2022-08-01T16:05:50.697Z,1207
2022-08-01T16:07:59.159Z,1128
2022-08-01T16:08:50.691Z,672
2022-08-01T16:09:50.630Z,706
2022-08-01T16:10:50.644Z,967
2022-08-01T16:12:50.861Z,920
2022-08-01T16:13:50.663Z,783
2022-08-01T16:14:50.701Z,599
2022-08-01T16:15:50.708Z,591
2022-08-01T16:17:50.842Z,733
2022-08-01T16:18:53.793Z,732
2022-08-01T16:19:50.669Z,748
2022-08-01T16:20:50.634Z,530
2022-08-01T16:22:50.859Z,546
2022-08-01T16:23:50.706Z,443
2022-08-01T16:24:50.710Z,787
2022-08-01T16:25:50.675Z,806
2022-08-01T16:27:50.830Z,834
2022-08-01T16:28:50.652Z,806
2022-08-01T16:29:50.638Z,561
2022-08-01T16:30:54.378Z,806
2022-08-01T16:32:51.854Z,531
2022-08-01T16:33:53.346Z,915
2022-08-01T16:34:50.716Z,956
2022-08-01T16:35:50.752Z,981
2022-08-01T16:37:50.853Z,1041
2022-08-01T16:38:50.679Z,624
2022-08-01T16:39:50.666Z,1007
2022-08-01T16:40:50.664Z,817
2022-08-01T16:42:50.847Z,949
2022-08-01T16:43:53.162Z,1125
2022-08-01T16:44:50.723Z,1029
2022-08-01T16:45:50.673Z,1074
2022-08-01T16:47:50.854Z,1001
2022-08-01T16:48:50.737Z,694
2022-08-01T16:49:50.683Z,959
2022-08-01T16:50:50.669Z,935
2022-08-01T16:52:50.832Z,690
2022-08-01T16:53:50.654Z,530
2022-08-01T16:54:50.662Z,732
2022-08-01T16:55:50.970Z,696
2022-08-01T16:57:50.853Z,653
2022-08-01T16:58:50.727Z,455
2022-08-01T16:59:50.737Z,618
2022-08-01T17:00:56.614Z,599
2022-08-01T17:02:50.933Z,577
2022-08-01T17:03:52.837Z,577
2022-08-01T17:04:50.661Z,584
2022-08-01T17:05:50.672Z,400
2022-08-01T17:07:50.862Z,442